Joe Creek, South Dakota
Current Conditions -  °F | °C
As of 6:53 PM on Friday 24 Oct 2014 (Local Time) from KPIR Reporting Station
Clear Clear  
Wind Chill: 65°   Ceiling: Unl
Heat Index: 65°   Visibility: 10mi
Dew Point: 39°   Wind: 12mph
Humidity: 39%   Direction: 350°N
Pressure: 29.97"   Gusts: NA
Location:  44.5157°N, 99.7243°W
Report Text: KPIR 242353Z AUTO 35010KT 10SM CLR 18/04 A2997 RMK AO2 SLP148 T01830039 10256 20183 53018
Loading
Personal Weather Stations






























Interactive Weather Map
Tropical Storm Tracking
New forecast layout! Learn more

10-Day Weather Forecast

Advertisements
Track Severe Weather on mobile